Berlin — 9HA2295 — position and weather

sailwx.info

Track history (hours):
 
Tides and Currents Weather Stations Pressure Air Temp Water Temp Dewpoint Dewpoint Depression Visibility Wind Speed Wind Dir Waves Ship Positions

Berlin

Last reported at 2017-Aug-17 01:30 UTC. Time now 2017-Aug-17 01:54 UTC.
Position N 59°14' E 019°03'.

Length 140 m; draft 5.1 m.

Type: Passenger vessel. MMSI: 248277000.

Date/timePositionNaut miles runAvg speedWind from/ knotsBaromVisibWave heightAir tempDewpointWater temp
2017-Aug-17 01:30N 59°14' E 019°03'510.6
2017-Aug-17 01:00N 59°15' E 019°13'510.7
2017-Aug-17 00:31N 59°15' E 019°23'510.7
2017-Aug-17 00:00N 59°16' E 019°34'611.6
2017-Aug-16 23:30N 59°17' E 019°45'714.3
2017-Aug-16 23:00N 59°18' E 019°59'714.4
2017-Aug-16 22:30N 59°19' E 020°13'714.4
2017-Aug-16 22:00N 59°20' E 020°27'714.5
2017-Aug-16 21:30N 59°21' E 020°41'815.3
2017-Aug-16 21:00N 59°22' E 020°56'816.3
2017-Aug-16 20:31N 59°23' E 021°12'714.9
2017-Aug-16 20:01N 59°24' E 021°26'714.4
2017-Aug-16 19:30N 59°25' E 021°40'612.0
2017-Aug-16 19:00N 59°25' E 021°52'714.8
2017-Aug-16 18:30N 59°26' E 022°06'714.9
2017-Aug-16 18:01N 59°28' E 022°21'715.0
2017-Aug-16 17:30N 59°31' E 022°34'714.8
2017-Aug-16 17:00N 59°34' E 022°48'815.0
2017-Aug-16 16:30N 59°36' E 023°02'714.7
2017-Aug-16 16:00N 59°38' E 023°16'714.8
2017-Aug-16 15:30N 59°40' E 023°30'714.9
2017-Aug-16 15:01N 59°42' E 023°44'815.1
2017-Aug-16 14:30N 59°44' E 023°59'816.4
2017-Aug-16 14:00N 59°46' E 024°14'815.5
2017-Aug-16 13:31N 59°48' E 024°29'713.9
2017-Aug-16 13:00N 59°53' E 024°40'714.4
2017-Aug-16 12:31N 59°58' E 024°50'713.7
2017-Aug-16 12:00N 60°03' E 024°58'510.7
2017-Aug-16 11:30N 60°09' E 024°60'2 3.5
2017-Aug-16 11:00N 60°10' E 024°58'0 0.0
2017-Aug-16 10:30N 60°10' E 024°58'0 0.0
2017-Aug-16 09:58N 60°10' E 024°58'0 0.0
2017-Aug-16 09:29N 60°10' E 024°58'0 0.0
2017-Aug-16 08:58N 60°10' E 024°58'0 0.0
2017-Aug-16 08:30N 60°10' E 024°58'0 0.0
2017-Aug-16 07:59N 60°10' E 024°58'0 0.0
2017-Aug-16 07:29N 60°10' E 024°58'0 0.0
2017-Aug-16 06:55N 60°10' E 024°58'0 0.0
2017-Aug-16 06:28N 60°10' E 024°58'0 0.0
2017-Aug-16 05:51N 60°10' E 024°58'0 0.0
2017-Aug-16 05:29N 60°10' E 024°58'0 0.0
2017-Aug-16 04:59N 60°10' E 024°58'1 1.2
2017-Aug-16 04:30N 60°10' E 024°58'510.9
2017-Aug-16 04:00N 60°04' E 024°58'611.5
2017-Aug-16 03:31N 59°59' E 025°04'815.2
2017-Aug-16 03:00N 59°57' E 025°19'815.8
2017-Aug-16 02:31N 59°55' E 025°34'714.5
2017-Aug-16 02:00N 59°55' E 025°49'815.1
2017-Aug-16 01:30N 59°57' E 026°03'713.4
2017-Aug-16 01:00N 59°59' E 026°16'815.8
2017-Aug-16 00:31N 60°01' E 026°31'713.4
2017-Aug-16 00:00N 60°01' E 026°45'715.0
2017-Aug-15 23:31N 59°60' E 026°60'714.5
2017-Aug-15 23:00N 60°02' E 027°13'815.9
2017-Aug-15 22:31N 60°07' E 027°26'713.7
2017-Aug-15 22:01N 60°10' E 027°39'816.7
2017-Aug-15 21:30N 60°11' E 027°55'714.1
2017-Aug-15 21:00N 60°09' E 028°09'713.1
2017-Aug-15 20:30N 60°06' E 028°21'714.9
2017-Aug-15 20:00N 60°03' E 028°34'815.7
2017-Aug-15 19:31N 60°03' E 028°50'714.5
2017-Aug-15 19:00N 60°02' E 029°05'815.0
2017-Aug-15 18:30N 60°02' E 029°20'611.3
2017-Aug-15 18:00N 60°01' E 029°31'612.5
2017-Aug-15 17:31N 59°59' E 029°43'611.5
2017-Aug-15 17:01N 59°57' E 029°53'612.8
2017-Aug-15 16:30N 59°54' E 030°05'4 7.9
2017-Aug-15 16:00N 59°53' E 030°12'3 6.2
2017-Aug-15 15:30N 59°56' E 030°17'0 0.3
2017-Aug-15 14:58N 59°56' E 030°17'0 0.0
2017-Aug-15 14:22N 59°56' E 030°17'0 0.0
2017-Aug-15 13:58N 59°56' E 030°17'0 0.0
2017-Aug-15 13:28N 59°56' E 030°17'0 0.0
2017-Aug-15 12:58N 59°56' E 030°17'0 0.0
2017-Aug-15 12:28N 59°56' E 030°17'0 0.0
2017-Aug-15 11:58N 59°56' E 030°17'0 0.0
2017-Aug-15 11:28N 59°56' E 030°17'0 0.0
2017-Aug-15 10:58N 59°56' E 030°17'0 0.0
2017-Aug-15 10:28N 59°56' E 030°17'0 0.0
2017-Aug-15 09:58N 59°56' E 030°17'0 0.0
2017-Aug-15 09:28N 59°56' E 030°17'0 0.0
2017-Aug-15 08:58N 59°56' E 030°17'0 0.0
2017-Aug-15 08:28N 59°56' E 030°17'0 0.0
2017-Aug-15 07:58N 59°56' E 030°17'0 0.0
2017-Aug-15 07:22N 59°56' E 030°17'0 0.0
2017-Aug-15 06:58N 59°56' E 030°17'0 0.0
2017-Aug-15 06:25N 59°56' E 030°17'0 0.0
2017-Aug-15 05:58N 59°56' E 030°17'0 0.0
2017-Aug-15 05:28N 59°56' E 030°17'0 0.0
2017-Aug-15 04:58N 59°56' E 030°17'0 0.0
2017-Aug-15 04:28N 59°56' E 030°17'0 0.0
2017-Aug-15 03:58N 59°56' E 030°17'0 0.0
2017-Aug-15 03:28N 59°56' E 030°17'0 0.0
2017-Aug-15 02:58N 59°56' E 030°17'0 0.0
2017-Aug-15 02:28N 59°56' E 030°17'0 0.0
2017-Aug-15 01:58N 59°56' E 030°17'0 0.0
2017-Aug-15 01:28N 59°56' E 030°17'0 0.0
2017-Aug-15 00:58N 59°56' E 030°17'0 0.0
2017-Aug-15 00:28N 59°56' E 030°17'0 0.0
2017-Aug-14 23:58N 59°56' E 030°17'0 0.0
2017-Aug-14 23:28N 59°56' E 030°17'0 0.0
2017-Aug-14 22:58N 59°56' E 030°17'0 0.0
2017-Aug-14 22:28N 59°56' E 030°17'0 0.0
2017-Aug-14 21:58N 59°56' E 030°17'0 0.0
2017-Aug-14 21:28N 59°56' E 030°17'0 0.0
2017-Aug-14 20:58N 59°56' E 030°17'0 0.0
2017-Aug-14 20:28N 59°56' E 030°17'0 0.0
2017-Aug-14 19:58N 59°56' E 030°17'0 0.0
2017-Aug-14 19:28N 59°56' E 030°17'0 0.0
2017-Aug-14 18:58N 59°56' E 030°17'0 0.0
2017-Aug-14 18:28N 59°56' E 030°17'0 0.0
2017-Aug-14 17:58N 59°56' E 030°17'0 0.0
2017-Aug-14 17:28N 59°56' E 030°17'0 0.0
2017-Aug-14 16:58N 59°56' E 030°17'0 0.0
2017-Aug-14 16:28N 59°56' E 030°17'0 0.0
2017-Aug-14 15:58N 59°56' E 030°17'0 0.0
2017-Aug-14 15:28N 59°56' E 030°17'0 0.0
2017-Aug-14 14:58N 59°56' E 030°17'0 0.0
2017-Aug-14 14:28N 59°56' E 030°17'0 0.0
2017-Aug-14 13:58N 59°56' E 030°17'0 0.0
2017-Aug-14 13:28N 59°56' E 030°17'0 0.0
2017-Aug-14 12:58N 59°56' E 030°17'0 0.0
2017-Aug-14 12:28N 59°56' E 030°17'0 0.0
2017-Aug-14 11:58N 59°56' E 030°17'0 0.0
2017-Aug-14 11:28N 59°56' E 030°17'0 0.0
2017-Aug-14 10:58N 59°56' E 030°17'0 0.0
2017-Aug-14 10:28N 59°56' E 030°17'0 0.0
2017-Aug-14 09:58N 59°56' E 030°17'0 0.0
2017-Aug-14 09:28N 59°56' E 030°17'0 0.0
2017-Aug-14 08:58N 59°56' E 030°17'0 0.0
2017-Aug-14 08:28N 59°56' E 030°17'0 0.0
2017-Aug-14 07:55N 59°56' E 030°17'0 0.0
2017-Aug-14 07:28N 59°56' E 030°17'0 0.0
2017-Aug-14 07:00N 59°56' E 030°17'1 2.9
2017-Aug-14 06:31N 59°55' E 030°15'3 5.7
2017-Aug-14 06:00N 59°53' E 030°10'5 9.4
2017-Aug-14 05:30N 59°55' E 030°01'612.2
2017-Aug-14 05:00N 59°57' E 029°50'511.0
2017-Aug-14 04:30N 59°60' E 029°40'1511.3
2017-Aug-14 03:12N 60°02' E 029°11'212.0
2017-Aug-14 03:00N 60°02' E 029°06'712.6
2017-Aug-14 02:28N 60°02' E 028°52'612.5
2017-Aug-14 02:00N 60°02' E 028°41'713.7
2017-Aug-14 01:30N 60°03' E 028°27'714.3
2017-Aug-14 01:00N 60°07' E 028°16'714.9
2017-Aug-14 00:30N 60°09' E 028°02'714.8
2017-Aug-14 00:00N 60°11' E 027°47'714.7
2017-Aug-13 23:30N 60°07' E 027°34'715.0
2017-Aug-13 23:00N 60°03' E 027°21'815.4
2017-Aug-13 22:30N 59°59' E 027°08'714.5
2017-Aug-13 22:00N 59°59' E 026°54'815.1
2017-Aug-13 21:31N 59°59' E 026°39'815.0
2017-Aug-13 21:01N 59°57' E 026°24'815.2
2017-Aug-13 20:30N 59°55' E 026°10'815.0
2017-Aug-13 20:00N 59°53' E 025°55'815.2
2017-Aug-13 19:30N 59°51' E 025°41'815.4
2017-Aug-13 19:00N 59°50' E 025°26'815.1
2017-Aug-13 18:31N 59°48' E 025°11'815.3
2017-Aug-13 18:01N 59°45' E 024°57'815.3
2017-Aug-13 17:31N 59°40' E 024°46'611.9
2017-Aug-13 17:01N 59°34' E 024°43'611.2
2017-Aug-13 16:30N 59°29' E 024°46'2 3.3
2017-Aug-13 15:59N 59°27' E 024°46'0 0.0
2017-Aug-13 15:29N 59°27' E 024°46'0 0.0
2017-Aug-13 14:59N 59°27' E 024°46'0 0.0
2017-Aug-13 14:29N 59°27' E 024°46'0 0.0
2017-Aug-13 13:59N 59°27' E 024°46'0 0.0
2017-Aug-13 13:29N 59°27' E 024°46'0 0.0
2017-Aug-13 12:59N 59°27' E 024°46'0 0.0
2017-Aug-13 12:29N 59°27' E 024°46'0 0.0
2017-Aug-13 11:59N 59°27' E 024°46'0 0.0
2017-Aug-13 11:29N 59°27' E 024°46'0 0.0
2017-Aug-13 10:59N 59°27' E 024°46'0 0.0
2017-Aug-13 10:29N 59°27' E 024°46'0 0.0
2017-Aug-13 10:00N 59°27' E 024°46'3 5.0
2017-Aug-13 09:31N 59°30' E 024°45'612.0
2017-Aug-13 09:01N 59°30' E 024°33'612.8
2017-Aug-13 08:31N 59°30' E 024°21'815.4
2017-Aug-13 08:00N 59°29' E 024°05'815.5
2017-Aug-13 07:30N 59°29' E 023°50'815.4
2017-Aug-13 07:00N 59°28' E 023°35'815.4
2017-Aug-13 06:30N 59°27' E 023°20'815.4
2017-Aug-13 06:01N 59°27' E 023°05'815.1
2017-Aug-13 05:31N 59°26' E 022°50'714.9
2017-Aug-13 05:01N 59°24' E 022°36'714.7
2017-Aug-13 04:30N 59°19' E 022°24'815.0
2017-Aug-13 04:01N 59°15' E 022°13'815.2
2017-Aug-13 03:31N 59°10' E 022°01'815.4
2017-Aug-13 03:00N 59°05' E 021°49'815.3
2017-Aug-13 02:30N 58°60' E 021°39'815.3
2017-Aug-13 02:01N 58°53' E 021°31'26715.1
2017-Aug-12 08:22N 55°43' E 015°45'815.7
2017-Aug-12 07:52N 55°39' E 015°33'615.6
2017-Aug-12 07:30N 55°37' E 015°24'815.5
2017-Aug-12 07:00N 55°33' E 015°12'815.3
2017-Aug-12 06:30N 55°30' E 014°60'815.5
2017-Aug-12 06:00N 55°26' E 014°48'815.5
2017-Aug-12 05:30N 55°22' E 014°37'815.2
2017-Aug-12 05:00N 55°16' E 014°28'714.9
2017-Aug-12 04:30N 55°10' E 014°20'815.0
2017-Aug-12 04:00N 55°04' E 014°12'714.5
2017-Aug-12 03:30N 55°00' E 014°01'815.0
2017-Aug-12 03:00N 54°57' E 013°49'715.0
2017-Aug-12 02:30N 54°55' E 013°37'1814.9
2017-Aug-12 01:17N 54°49' E 013°07'414.9
2017-Aug-12 01:00N 54°48' E 012°60'714.7
2017-Aug-12 00:30N 54°46' E 012°48'714.2
2017-Aug-12 00:00N 54°42' E 012°37'1713.8
2017-Aug-11 22:47N 54°30' E 012°17'414.3
2017-Aug-11 22:30N 54°27' E 012°14'1413.8
2017-Aug-11 21:31N 54°25' E 011°50'114.6
2017-Aug-11 21:27N 54°25' E 011°49'614.4
2017-Aug-11 21:00N 54°27' E 011°38'714.8
2017-Aug-11 20:30N 54°30' E 011°27'714.3
2017-Aug-11 20:00N 54°33' E 011°16'713.8
2017-Aug-11 19:30N 54°35' E 011°04'714.5
2017-Aug-11 19:00N 54°35' E 010°52'714.5
2017-Aug-11 18:30N 54°34' E 010°39'714.6
2017-Aug-11 18:00N 54°31' E 010°27'16 1.5
2017-Aug-11 07:16N 54°20' E 010°09'1 2.2
2017-Aug-11 06:59N 54°20' E 010°10'4 7.3
2017-Aug-11 06:26N 54°24' E 010°12'512.1
2017-Aug-11 06:00N 54°29' E 010°15'810.6
2017-Aug-11 05:15N 54°33' E 010°27'311.6
2017-Aug-11 05:00N 54°34' E 010°32'611.7
2017-Aug-11 04:30N 54°35' E 010°42'714.5
2017-Aug-11 04:00N 54°35' E 010°54'816.0
2017-Aug-11 03:31N 54°37' E 011°08'815.3
2017-Aug-11 03:00N 54°34' E 011°20'815.2
2017-Aug-11 02:30N 54°30' E 011°31'815.0
2017-Aug-11 02:00N 54°27' E 011°43'815.0
2017-Aug-11 01:30N 54°26' E 011°56'714.9
2017-Aug-11 01:00N 54°27' E 012°09'714.5
2017-Aug-11 00:30N 54°34' E 012°13'714.4
2017-Aug-11 00:00N 54°40' E 012°22'915.1
2017-Aug-10 23:26N 54°44' E 012°34'714.9
2017-Aug-10 22:59N 54°47' E 012°45'1015.0
2017-Aug-10 22:17N 54°51' E 013°02'715.2
2017-Aug-10 21:51N 54°53' E 013°13'2415.2
2017-Aug-10 20:18N 55°01' E 013°52'415.3
2017-Aug-10 20:00N 55°02' E 013°59'714.7
2017-Aug-10 19:30N 55°06' E 014°09'815.2
2017-Aug-10 19:00N 55°13' E 014°17'815.0
2017-Aug-10 18:30N 55°18' E 014°25'815.0
2017-Aug-10 18:00N 55°24' E 014°34'714.9
2017-Aug-10 17:30N 55°29' E 014°45'815.0
2017-Aug-10 17:00N 55°32' E 014°56'714.8
2017-Aug-10 16:30N 55°36' E 015°08'714.6
2017-Aug-10 16:00N 55°39' E 015°19'714.3
2017-Aug-10 15:30N 55°43' E 015°30'714.5
2017-Aug-10 15:00N 55°46' E 015°41'714.8
2017-Aug-10 14:30N 55°50' E 015°53'714.9
2017-Aug-10 14:00N 55°53' E 016°04'714.8
2017-Aug-10 13:30N 55°57' E 016°16'2214.9
2017-Aug-10 12:02N 56°10' E 016°48'7814.9
2017-Aug-10 06:48N 56°56' E 018°42'5915.0
2017-Aug-10 02:50N 57°25' E 020°18'614.9
2017-Aug-10 02:25N 57°28' E 020°28'2914.5
2017-Aug-10 00:24N 57°44' E 021°14'614.4
2017-Aug-09 23:59N 57°47' E 021°24'714.5
2017-Aug-09 23:30N 57°51' E 021°35'611.2
2017-Aug-09 22:56N 57°46' E 021°44'714.6
2017-Aug-09 22:25N 57°41' E 021°54'70 4.8
2017-Aug-09 07:49N 57°10' E 023°51'514.7
2017-Aug-09 07:27N 57°14' E 023°44'714.7
2017-Aug-09 06:58N 57°19' E 023°35'714.7
2017-Aug-09 06:31N 57°24' E 023°26'714.6
2017-Aug-09 06:01N 57°29' E 023°16'714.3
2017-Aug-09 05:30N 57°34' E 023°07'714.4
2017-Aug-09 05:00N 57°40' E 022°58'714.5
2017-Aug-09 04:31N 57°45' E 022°48'714.2
2017-Aug-09 04:00N 57°49' E 022°38'714.8
2017-Aug-09 03:31N 57°47' E 022°25'715.0
2017-Aug-09 03:01N 57°44' E 022°12'714.8
2017-Aug-09 02:30N 57°41' E 021°59'713.8
2017-Aug-09 02:00N 57°44' E 021°48'714.1
2017-Aug-09 01:30N 57°50' E 021°41'714.6
2017-Aug-09 01:00N 57°57' E 021°36'714.5
2017-Aug-09 00:30N 58°03' E 021°30'714.5
2017-Aug-09 00:01N 58°10' E 021°24'714.3
2017-Aug-08 23:30N 58°16' E 021°17'714.2
2017-Aug-08 23:01N 58°23' E 021°19'714.7
2017-Aug-08 22:31N 58°30' E 021°22'714.7
2017-Aug-08 22:01N 58°37' E 021°24'714.7
2017-Aug-08 21:30N 58°45' E 021°27'714.8
2017-Aug-08 21:01N 58°52' E 021°30'714.7
2017-Aug-08 20:31N 58°59' E 021°32'714.6
2017-Aug-08 20:00N 59°06' E 021°37'714.8
2017-Aug-08 19:30N 59°11' E 021°47'815.0
2017-Aug-08 19:01N 59°16' E 021°59'815.1
2017-Aug-08 18:31N 59°21' E 022°10'815.1
2017-Aug-08 18:01N 59°25' E 022°22'815.0
2017-Aug-08 17:31N 59°30' E 022°34'714.8
2017-Aug-08 17:01N 59°32' E 022°48'714.8
2017-Aug-08 16:31N 59°33' E 023°02'714.9
2017-Aug-08 16:01N 59°32' E 023°17'714.7
2017-Aug-08 15:31N 59°32' E 023°31'714.6
2017-Aug-08 15:01N 59°31' E 023°46'714.9
2017-Aug-08 14:31N 59°31' E 024°00'714.7
2017-Aug-08 14:01N 59°31' E 024°15'714.3
2017-Aug-08 13:30N 59°30' E 024°29'612.7
2017-Aug-08 13:01N 59°32' E 024°41'510.3
2017-Aug-08 12:30N 59°27' E 024°46'0 0.0
2017-Aug-08 12:00N 59°27' E 024°46'0 0.0
2017-Aug-08 11:30N 59°27' E 024°46'0 0.0
2017-Aug-08 11:00N 59°27' E 024°46'0 0.0
2017-Aug-08 10:30N 59°27' E 024°46'0 0.0
2017-Aug-08 10:00N 59°27' E 024°46'0 0.0
2017-Aug-08 09:27N 59°27' E 024°46'0 0.0
2017-Aug-08 08:58N 59°27' E 024°46'0 0.0
2017-Aug-08 08:28N 59°27' E 024°46'0 0.0
2017-Aug-08 07:55N 59°27' E 024°46'0 0.0
2017-Aug-08 07:28N 59°27' E 024°46'0 0.0
2017-Aug-08 06:58N 59°27' E 024°46'1 1.5
2017-Aug-08 06:30N 59°28' E 024°46'612.6
2017-Aug-08 06:00N 59°34' E 024°42'611.1
2017-Aug-08 05:31N 59°39' E 024°44'714.2
2017-Aug-08 05:01N 59°45' E 024°53'612.7
2017-Aug-08 04:30N 59°49' E 025°02'2 3.9
2017-Aug-08 04:00N 59°51' E 025°04'612.5
2017-Aug-08 03:30N 59°51' E 025°17'714.6
2017-Aug-08 03:00N 59°53' E 025°31'714.7
2017-Aug-08 02:30N 59°55' E 025°45'714.6
2017-Aug-08 02:00N 59°57' E 025°59'714.5
2017-Aug-08 01:31N 59°59' E 026°13'714.7
2017-Aug-08 01:01N 60°01' E 026°27'714.6
2017-Aug-08 00:31N 60°01' E 026°42'714.9
2017-Aug-08 00:00N 59°60' E 026°57'714.2
2017-Aug-07 23:30N 60°01' E 027°11'714.8
2017-Aug-07 23:00N 60°05' E 027°23'714.7
2017-Aug-07 22:30N 60°09' E 027°36'714.3
2017-Aug-07 22:00N 60°12' E 027°49'714.8
2017-Aug-07 21:30N 60°10' E 028°03'714.6
2017-Aug-07 21:00N 60°07' E 028°17'714.8
2017-Aug-07 20:30N 60°04' E 028°30'917.0
2017-Aug-07 20:00N 60°03' E 028°47'714.0
2017-Aug-07 19:29N 60°02' E 029°01'1412.8
2017-Aug-07 18:24N 60°02' E 029°29'510.1
2017-Aug-07 17:52N 59°60' E 029°39'410.2
2017-Aug-07 17:30N 59°59' E 029°46'510.2
2017-Aug-07 17:00N 59°56' E 029°55'613.0
2017-Aug-07 16:30N 59°54' E 030°07'3 5.8
2017-Aug-07 16:00N 59°54' E 030°13'3 5.2
2017-Aug-07 15:30N 59°56' E 030°16'0 0.3
2017-Aug-07 14:58N 59°56' E 030°17'0 0.0
2017-Aug-07 14:28N 59°56' E 030°17'0 0.0
2017-Aug-07 13:58N 59°56' E 030°17'0 0.0
2017-Aug-07 13:28N 59°56' E 030°17'0 0.0
2017-Aug-07 12:58N 59°56' E 030°17'0 0.0
2017-Aug-07 12:28N 59°56' E 030°17'0 0.0
2017-Aug-07 11:58N 59°56' E 030°17'0 0.0
2017-Aug-07 11:28N 59°56' E 030°17'0 0.0
2017-Aug-07 10:58N 59°56' E 030°17'0 0.0
2017-Aug-07 10:28N 59°56' E 030°17'0 0.0
2017-Aug-07 09:58N 59°56' E 030°17'0 0.0
2017-Aug-07 09:28N 59°56' E 030°17'0 0.0
2017-Aug-07 08:58N 59°56' E 030°17'0 0.0
2017-Aug-07 08:28N 59°56' E 030°17'0 0.0
2017-Aug-07 07:58N 59°56' E 030°17'0 0.0
2017-Aug-07 07:28N 59°56' E 030°17'0 0.0
2017-Aug-07 06:58N 59°56' E 030°17'0 0.0
2017-Aug-07 06:28N 59°56' E 030°17'0 0.0
2017-Aug-07 05:58N 59°56' E 030°17'0 0.0
2017-Aug-07 05:28N 59°56' E 030°17'0 0.0
2017-Aug-07 04:58N 59°56' E 030°17'0 0.0
2017-Aug-07 04:28N 59°56' E 030°17'0 0.0
2017-Aug-07 03:58N 59°56' E 030°17'0 0.0
2017-Aug-07 03:28N 59°56' E 030°17'0 0.0
2017-Aug-07 02:58N 59°56' E 030°17'0 0.0
2017-Aug-07 02:28N 59°56' E 030°17'0 0.0
2017-Aug-07 01:58N 59°56' E 030°17'  
Track history (hours):
 
Tides and Currents Weather Stations Pressure Air Temp Water Temp Dewpoint Dewpoint Depression Visibility Wind Speed Wind Dir Waves Ship Positions

Berlin

Last reported at 2017-Aug-17 01:30 UTC. Time now 2017-Aug-17 01:54 UTC.
Position N 59°14' E 019°03'.

Length 140 m; draft 5.1 m.

Type: Passenger vessel. MMSI: 248277000.

Date/timePositionNaut miles runAvg speedWind from/ knotsBaromVisibWave heightAir tempDewpointWater temp
2017-Aug-17 01:30N 59°14' E 019°03'510.6
2017-Aug-17 01:00N 59°15' E 019°13'510.7
2017-Aug-17 00:31N 59°15' E 019°23'510.7
2017-Aug-17 00:00N 59°16' E 019°34'611.6
2017-Aug-16 23:30N 59°17' E 019°45'714.3
2017-Aug-16 23:00N 59°18' E 019°59'714.4
2017-Aug-16 22:30N 59°19' E 020°13'714.4
2017-Aug-16 22:00N 59°20' E 020°27'714.5
2017-Aug-16 21:30N 59°21' E 020°41'815.3
2017-Aug-16 21:00N 59°22' E 020°56'816.3
2017-Aug-16 20:31N 59°23' E 021°12'714.9
2017-Aug-16 20:01N 59°24' E 021°26'714.4
2017-Aug-16 19:30N 59°25' E 021°40'612.0
2017-Aug-16 19:00N 59°25' E 021°52'714.8
2017-Aug-16 18:30N 59°26' E 022°06'714.9
2017-Aug-16 18:01N 59°28' E 022°21'715.0
2017-Aug-16 17:30N 59°31' E 022°34'714.8
2017-Aug-16 17:00N 59°34' E 022°48'815.0
2017-Aug-16 16:30N 59°36' E 023°02'714.7
2017-Aug-16 16:00N 59°38' E 023°16'714.8
2017-Aug-16 15:30N 59°40' E 023°30'714.9
2017-Aug-16 15:01N 59°42' E 023°44'815.1
2017-Aug-16 14:30N 59°44' E 023°59'816.4
2017-Aug-16 14:00N 59°46' E 024°14'815.5
2017-Aug-16 13:31N 59°48' E 024°29'713.9
2017-Aug-16 13:00N 59°53' E 024°40'714.4
2017-Aug-16 12:31N 59°58' E 024°50'713.7
2017-Aug-16 12:00N 60°03' E 024°58'510.7
2017-Aug-16 11:30N 60°09' E 024°60'2 3.5
2017-Aug-16 11:00N 60°10' E 024°58'0 0.0
2017-Aug-16 10:30N 60°10' E 024°58'0 0.0
2017-Aug-16 09:58N 60°10' E 024°58'0 0.0
2017-Aug-16 09:29N 60°10' E 024°58'0 0.0
2017-Aug-16 08:58N 60°10' E 024°58'0 0.0
2017-Aug-16 08:30N 60°10' E 024°58'0 0.0
2017-Aug-16 07:59N 60°10' E 024°58'0 0.0
2017-Aug-16 07:29N 60°10' E 024°58'0 0.0
2017-Aug-16 06:55N 60°10' E 024°58'0 0.0
2017-Aug-16 06:28N 60°10' E 024°58'0 0.0
2017-Aug-16 05:51N 60°10' E 024°58'0 0.0
2017-Aug-16 05:29N 60°10' E 024°58'0 0.0
2017-Aug-16 04:59N 60°10' E 024°58'1 1.2
2017-Aug-16 04:30N 60°10' E 024°58'510.9
2017-Aug-16 04:00N 60°04' E 024°58'611.5
2017-Aug-16 03:31N 59°59' E 025°04'815.2
2017-Aug-16 03:00N 59°57' E 025°19'815.8
2017-Aug-16 02:31N 59°55' E 025°34'714.5
2017-Aug-16 02:00N 59°55' E 025°49'815.1
2017-Aug-16 01:30N 59°57' E 026°03'713.4
2017-Aug-16 01:00N 59°59' E 026°16'815.8
2017-Aug-16 00:31N 60°01' E 026°31'713.4
2017-Aug-16 00:00N 60°01' E 026°45'715.0
2017-Aug-15 23:31N 59°60' E 026°60'714.5
2017-Aug-15 23:00N 60°02' E 027°13'815.9
2017-Aug-15 22:31N 60°07' E 027°26'713.7
2017-Aug-15 22:01N 60°10' E 027°39'816.7
2017-Aug-15 21:30N 60°11' E 027°55'714.1
2017-Aug-15 21:00N 60°09' E 028°09'713.1
2017-Aug-15 20:30N 60°06' E 028°21'714.9
2017-Aug-15 20:00N 60°03' E 028°34'815.7
2017-Aug-15 19:31N 60°03' E 028°50'714.5
2017-Aug-15 19:00N 60°02' E 029°05'815.0
2017-Aug-15 18:30N 60°02' E 029°20'611.3
2017-Aug-15 18:00N 60°01' E 029°31'612.5
2017-Aug-15 17:31N 59°59' E 029°43'611.5
2017-Aug-15 17:01N 59°57' E 029°53'612.8
2017-Aug-15 16:30N 59°54' E 030°05'4 7.9
2017-Aug-15 16:00N 59°53' E 030°12'3 6.2
2017-Aug-15 15:30N 59°56' E 030°17'0 0.3
2017-Aug-15 14:58N 59°56' E 030°17'0 0.0
2017-Aug-15 14:22N 59°56' E 030°17'0 0.0
2017-Aug-15 13:58N 59°56' E 030°17'0 0.0
2017-Aug-15 13:28N 59°56' E 030°17'0 0.0
2017-Aug-15 12:58N 59°56' E 030°17'0 0.0
2017-Aug-15 12:28N 59°56' E 030°17'0 0.0
2017-Aug-15 11:58N 59°56' E 030°17'0 0.0
2017-Aug-15 11:28N 59°56' E 030°17'0 0.0
2017-Aug-15 10:58N 59°56' E 030°17'0 0.0
2017-Aug-15 10:28N 59°56' E 030°17'0 0.0
2017-Aug-15 09:58N 59°56' E 030°17'0 0.0
2017-Aug-15 09:28N 59°56' E 030°17'0 0.0
2017-Aug-15 08:58N 59°56' E 030°17'0 0.0
2017-Aug-15 08:28N 59°56' E 030°17'0 0.0
2017-Aug-15 07:58N 59°56' E 030°17'0 0.0
2017-Aug-15 07:22N 59°56' E 030°17'0 0.0
2017-Aug-15 06:58N 59°56' E 030°17'0 0.0
2017-Aug-15 06:25N 59°56' E 030°17'0 0.0
2017-Aug-15 05:58N 59°56' E 030°17'0 0.0
2017-Aug-15 05:28N 59°56' E 030°17'0 0.0
2017-Aug-15 04:58N 59°56' E 030°17'0 0.0
2017-Aug-15 04:28N 59°56' E 030°17'0 0.0
2017-Aug-15 03:58N 59°56' E 030°17'0 0.0
2017-Aug-15 03:28N 59°56' E 030°17'0 0.0
2017-Aug-15 02:58N 59°56' E 030°17'0 0.0
2017-Aug-15 02:28N 59°56' E 030°17'0 0.0
2017-Aug-15 01:58N 59°56' E 030°17'0 0.0
2017-Aug-15 01:28N 59°56' E 030°17'0 0.0
2017-Aug-15 00:58N 59°56' E 030°17'0 0.0
2017-Aug-15 00:28N 59°56' E 030°17'0 0.0
2017-Aug-14 23:58N 59°56' E 030°17'0 0.0
2017-Aug-14 23:28N 59°56' E 030°17'0 0.0
2017-Aug-14 22:58N 59°56' E 030°17'0 0.0
2017-Aug-14 22:28N 59°56' E 030°17'0 0.0
2017-Aug-14 21:58N 59°56' E 030°17'0 0.0
2017-Aug-14 21:28N 59°56' E 030°17'0 0.0
2017-Aug-14 20:58N 59°56' E 030°17'0 0.0
2017-Aug-14 20:28N 59°56' E 030°17'0 0.0
2017-Aug-14 19:58N 59°56' E 030°17'0 0.0
2017-Aug-14 19:28N 59°56' E 030°17'0 0.0
2017-Aug-14 18:58N 59°56' E 030°17'0 0.0
2017-Aug-14 18:28N 59°56' E 030°17'0 0.0
2017-Aug-14 17:58N 59°56' E 030°17'0 0.0
2017-Aug-14 17:28N 59°56' E 030°17'0 0.0
2017-Aug-14 16:58N 59°56' E 030°17'0 0.0
2017-Aug-14 16:28N 59°56' E 030°17'0 0.0
2017-Aug-14 15:58N 59°56' E 030°17'0 0.0
2017-Aug-14 15:28N 59°56' E 030°17'0 0.0
2017-Aug-14 14:58N 59°56' E 030°17'0 0.0
2017-Aug-14 14:28N 59°56' E 030°17'0 0.0
2017-Aug-14 13:58N 59°56' E 030°17'0 0.0
2017-Aug-14 13:28N 59°56' E 030°17'0 0.0
2017-Aug-14 12:58N 59°56' E 030°17'0 0.0
2017-Aug-14 12:28N 59°56' E 030°17'0 0.0
2017-Aug-14 11:58N 59°56' E 030°17'0 0.0
2017-Aug-14 11:28N 59°56' E 030°17'0 0.0
2017-Aug-14 10:58N 59°56' E 030°17'0 0.0
2017-Aug-14 10:28N 59°56' E 030°17'0 0.0
2017-Aug-14 09:58N 59°56' E 030°17'0 0.0
2017-Aug-14 09:28N 59°56' E 030°17'0 0.0
2017-Aug-14 08:58N 59°56' E 030°17'0 0.0
2017-Aug-14 08:28N 59°56' E 030°17'0 0.0
2017-Aug-14 07:55N 59°56' E 030°17'0 0.0
2017-Aug-14 07:28N 59°56' E 030°17'0 0.0
2017-Aug-14 07:00N 59°56' E 030°17'1 2.9
2017-Aug-14 06:31N 59°55' E 030°15'3 5.7
2017-Aug-14 06:00N 59°53' E 030°10'5 9.4
2017-Aug-14 05:30N 59°55' E 030°01'612.2
2017-Aug-14 05:00N 59°57' E 029°50'511.0
2017-Aug-14 04:30N 59°60' E 029°40'1511.3
2017-Aug-14 03:12N 60°02' E 029°11'212.0
2017-Aug-14 03:00N 60°02' E 029°06'712.6
2017-Aug-14 02:28N 60°02' E 028°52'612.5
2017-Aug-14 02:00N 60°02' E 028°41'713.7
2017-Aug-14 01:30N 60°03' E 028°27'714.3
2017-Aug-14 01:00N 60°07' E 028°16'714.9
2017-Aug-14 00:30N 60°09' E 028°02'714.8
2017-Aug-14 00:00N 60°11' E 027°47'714.7
2017-Aug-13 23:30N 60°07' E 027°34'715.0
2017-Aug-13 23:00N 60°03' E 027°21'815.4
2017-Aug-13 22:30N 59°59' E 027°08'714.5
2017-Aug-13 22:00N 59°59' E 026°54'815.1
2017-Aug-13 21:31N 59°59' E 026°39'815.0
2017-Aug-13 21:01N 59°57' E 026°24'815.2
2017-Aug-13 20:30N 59°55' E 026°10'815.0
2017-Aug-13 20:00N 59°53' E 025°55'815.2
2017-Aug-13 19:30N 59°51' E 025°41'815.4
2017-Aug-13 19:00N 59°50' E 025°26'815.1
2017-Aug-13 18:31N 59°48' E 025°11'815.3
2017-Aug-13 18:01N 59°45' E 024°57'815.3
2017-Aug-13 17:31N 59°40' E 024°46'611.9
2017-Aug-13 17:01N 59°34' E 024°43'611.2
2017-Aug-13 16:30N 59°29' E 024°46'2 3.3
2017-Aug-13 15:59N 59°27' E 024°46'0 0.0
2017-Aug-13 15:29N 59°27' E 024°46'0 0.0
2017-Aug-13 14:59N 59°27' E 024°46'0 0.0
2017-Aug-13 14:29N 59°27' E 024°46'0 0.0
2017-Aug-13 13:59N 59°27' E 024°46'0 0.0
2017-Aug-13 13:29N 59°27' E 024°46'0 0.0
2017-Aug-13 12:59N 59°27' E 024°46'0 0.0
2017-Aug-13 12:29N 59°27' E 024°46'0 0.0
2017-Aug-13 11:59N 59°27' E 024°46'0 0.0
2017-Aug-13 11:29N 59°27' E 024°46'0 0.0
2017-Aug-13 10:59N 59°27' E 024°46'0 0.0
2017-Aug-13 10:29N 59°27' E 024°46'0 0.0
2017-Aug-13 10:00N 59°27' E 024°46'3 5.0
2017-Aug-13 09:31N 59°30' E 024°45'612.0
2017-Aug-13 09:01N 59°30' E 024°33'612.8
2017-Aug-13 08:31N 59°30' E 024°21'815.4
2017-Aug-13 08:00N 59°29' E 024°05'815.5
2017-Aug-13 07:30N 59°29' E 023°50'815.4
2017-Aug-13 07:00N 59°28' E 023°35'815.4
2017-Aug-13 06:30N 59°27' E 023°20'815.4
2017-Aug-13 06:01N 59°27' E 023°05'815.1
2017-Aug-13 05:31N 59°26' E 022°50'714.9
2017-Aug-13 05:01N 59°24' E 022°36'714.7
2017-Aug-13 04:30N 59°19' E 022°24'815.0
2017-Aug-13 04:01N 59°15' E 022°13'815.2
2017-Aug-13 03:31N 59°10' E 022°01'815.4
2017-Aug-13 03:00N 59°05' E 021°49'815.3
2017-Aug-13 02:30N 58°60' E 021°39'815.3
2017-Aug-13 02:01N 58°53' E 021°31'26715.1
2017-Aug-12 08:22N 55°43' E 015°45'815.7
2017-Aug-12 07:52N 55°39' E 015°33'615.6
2017-Aug-12 07:30N 55°37' E 015°24'815.5
2017-Aug-12 07:00N 55°33' E 015°12'815.3
2017-Aug-12 06:30N 55°30' E 014°60'815.5
2017-Aug-12 06:00N 55°26' E 014°48'815.5
2017-Aug-12 05:30N 55°22' E 014°37'815.2
2017-Aug-12 05:00N 55°16' E 014°28'714.9
2017-Aug-12 04:30N 55°10' E 014°20'815.0
2017-Aug-12 04:00N 55°04' E 014°12'714.5
2017-Aug-12 03:30N 55°00' E 014°01'815.0
2017-Aug-12 03:00N 54°57' E 013°49'715.0
2017-Aug-12 02:30N 54°55' E 013°37'1814.9
2017-Aug-12 01:17N 54°49' E 013°07'414.9
2017-Aug-12 01:00N 54°48' E 012°60'714.7
2017-Aug-12 00:30N 54°46' E 012°48'714.2
2017-Aug-12 00:00N 54°42' E 012°37'1713.8
2017-Aug-11 22:47N 54°30' E 012°17'414.3
2017-Aug-11 22:30N 54°27' E 012°14'1413.8
2017-Aug-11 21:31N 54°25' E 011°50'114.6
2017-Aug-11 21:27N 54°25' E 011°49'614.4
2017-Aug-11 21:00N 54°27' E 011°38'714.8
2017-Aug-11 20:30N 54°30' E 011°27'714.3
2017-Aug-11 20:00N 54°33' E 011°16'713.8
2017-Aug-11 19:30N 54°35' E 011°04'714.5
2017-Aug-11 19:00N 54°35' E 010°52'714.5
2017-Aug-11 18:30N 54°34' E 010°39'714.6
2017-Aug-11 18:00N 54°31' E 010°27'16 1.5
2017-Aug-11 07:16N 54°20' E 010°09'1 2.2
2017-Aug-11 06:59N 54°20' E 010°10'4 7.3
2017-Aug-11 06:26N 54°24' E 010°12'512.1
2017-Aug-11 06:00N 54°29' E 010°15'810.6
2017-Aug-11 05:15N 54°33' E 010°27'311.6
2017-Aug-11 05:00N 54°34' E 010°32'611.7
2017-Aug-11 04:30N 54°35' E 010°42'714.5
2017-Aug-11 04:00N 54°35' E 010°54'816.0
2017-Aug-11 03:31N 54°37' E 011°08'815.3
2017-Aug-11 03:00N 54°34' E 011°20'815.2
2017-Aug-11 02:30N 54°30' E 011°31'815.0
2017-Aug-11 02:00N 54°27' E 011°43'815.0
2017-Aug-11 01:30N 54°26' E 011°56'714.9
2017-Aug-11 01:00N 54°27' E 012°09'714.5
2017-Aug-11 00:30N 54°34' E 012°13'714.4
2017-Aug-11 00:00N 54°40' E 012°22'915.1
2017-Aug-10 23:26N 54°44' E 012°34'714.9
2017-Aug-10 22:59N 54°47' E 012°45'1015.0
2017-Aug-10 22:17N 54°51' E 013°02'715.2
2017-Aug-10 21:51N 54°53' E 013°13'2415.2
2017-Aug-10 20:18N 55°01' E 013°52'415.3
2017-Aug-10 20:00N 55°02' E 013°59'714.7
2017-Aug-10 19:30N 55°06' E 014°09'815.2
2017-Aug-10 19:00N 55°13' E 014°17'815.0
2017-Aug-10 18:30N 55°18' E 014°25'815.0
2017-Aug-10 18:00N 55°24' E 014°34'714.9
2017-Aug-10 17:30N 55°29' E 014°45'815.0
2017-Aug-10 17:00N 55°32' E 014°56'714.8
2017-Aug-10 16:30N 55°36' E 015°08'714.6
2017-Aug-10 16:00N 55°39' E 015°19'714.3
2017-Aug-10 15:30N 55°43' E 015°30'714.5
2017-Aug-10 15:00N 55°46' E 015°41'714.8
2017-Aug-10 14:30N 55°50' E 015°53'714.9
2017-Aug-10 14:00N 55°53' E 016°04'714.8
2017-Aug-10 13:30N 55°57' E 016°16'2214.9
2017-Aug-10 12:02N 56°10' E 016°48'7814.9
2017-Aug-10 06:48N 56°56' E 018°42'5915.0
2017-Aug-10 02:50N 57°25' E 020°18'614.9
2017-Aug-10 02:25N 57°28' E 020°28'2914.5
2017-Aug-10 00:24N 57°44' E 021°14'614.4
2017-Aug-09 23:59N 57°47' E 021°24'714.5
2017-Aug-09 23:30N 57°51' E 021°35'611.2
2017-Aug-09 22:56N 57°46' E 021°44'714.6
2017-Aug-09 22:25N 57°41' E 021°54'70 4.8
2017-Aug-09 07:49N 57°10' E 023°51'514.7
2017-Aug-09 07:27N 57°14' E 023°44'714.7
2017-Aug-09 06:58N 57°19' E 023°35'714.7
2017-Aug-09 06:31N 57°24' E 023°26'714.6
2017-Aug-09 06:01N 57°29' E 023°16'714.3
2017-Aug-09 05:30N 57°34' E 023°07'714.4
2017-Aug-09 05:00N 57°40' E 022°58'714.5
2017-Aug-09 04:31N 57°45' E 022°48'714.2
2017-Aug-09 04:00N 57°49' E 022°38'714.8
2017-Aug-09 03:31N 57°47' E 022°25'715.0
2017-Aug-09 03:01N 57°44' E 022°12'714.8
2017-Aug-09 02:30N 57°41' E 021°59'713.8
2017-Aug-09 02:00N 57°44' E 021°48'714.1
2017-Aug-09 01:30N 57°50' E 021°41'714.6
2017-Aug-09 01:00N 57°57' E 021°36'714.5
2017-Aug-09 00:30N 58°03' E 021°30'714.5
2017-Aug-09 00:01N 58°10' E 021°24'714.3
2017-Aug-08 23:30N 58°16' E 021°17'714.2
2017-Aug-08 23:01N 58°23' E 021°19'714.7
2017-Aug-08 22:31N 58°30' E 021°22'714.7
2017-Aug-08 22:01N 58°37' E 021°24'714.7
2017-Aug-08 21:30N 58°45' E 021°27'714.8
2017-Aug-08 21:01N 58°52' E 021°30'714.7
2017-Aug-08 20:31N 58°59' E 021°32'714.6
2017-Aug-08 20:00N 59°06' E 021°37'714.8
2017-Aug-08 19:30N 59°11' E 021°47'815.0
2017-Aug-08 19:01N 59°16' E 021°59'815.1
2017-Aug-08 18:31N 59°21' E 022°10'815.1
2017-Aug-08 18:01N 59°25' E 022°22'815.0
2017-Aug-08 17:31N 59°30' E 022°34'714.8
2017-Aug-08 17:01N 59°32' E 022°48'714.8
2017-Aug-08 16:31N 59°33' E 023°02'714.9
2017-Aug-08 16:01N 59°32' E 023°17'714.7
2017-Aug-08 15:31N 59°32' E 023°31'714.6
2017-Aug-08 15:01N 59°31' E 023°46'714.9
2017-Aug-08 14:31N 59°31' E 024°00'714.7
2017-Aug-08 14:01N 59°31' E 024°15'714.3
2017-Aug-08 13:30N 59°30' E 024°29'612.7
2017-Aug-08 13:01N 59°32' E 024°41'510.3
2017-Aug-08 12:30N 59°27' E 024°46'0 0.0
2017-Aug-08 12:00N 59°27' E 024°46'0 0.0
2017-Aug-08 11:30N 59°27' E 024°46'0 0.0
2017-Aug-08 11:00N 59°27' E 024°46'0 0.0
2017-Aug-08 10:30N 59°27' E 024°46'0 0.0
2017-Aug-08 10:00N 59°27' E 024°46'0 0.0
2017-Aug-08 09:27N 59°27' E 024°46'0 0.0
2017-Aug-08 08:58N 59°27' E 024°46'0 0.0
2017-Aug-08 08:28N 59°27' E 024°46'0 0.0
2017-Aug-08 07:55N 59°27' E 024°46'0 0.0
2017-Aug-08 07:28N 59°27' E 024°46'0 0.0
2017-Aug-08 06:58N 59°27' E 024°46'1 1.5
2017-Aug-08 06:30N 59°28' E 024°46'612.6
2017-Aug-08 06:00N 59°34' E 024°42'611.1
2017-Aug-08 05:31N 59°39' E 024°44'714.2
2017-Aug-08 05:01N 59°45' E 024°53'612.7
2017-Aug-08 04:30N 59°49' E 025°02'2 3.9
2017-Aug-08 04:00N 59°51' E 025°04'612.5
2017-Aug-08 03:30N 59°51' E 025°17'714.6
2017-Aug-08 03:00N 59°53' E 025°31'714.7
2017-Aug-08 02:30N 59°55' E 025°45'714.6
2017-Aug-08 02:00N 59°57' E 025°59'714.5
2017-Aug-08 01:31N 59°59' E 026°13'714.7
2017-Aug-08 01:01N 60°01' E 026°27'714.6
2017-Aug-08 00:31N 60°01' E 026°42'714.9
2017-Aug-08 00:00N 59°60' E 026°57'714.2
2017-Aug-07 23:30N 60°01' E 027°11'714.8
2017-Aug-07 23:00N 60°05' E 027°23'714.7
2017-Aug-07 22:30N 60°09' E 027°36'714.3
2017-Aug-07 22:00N 60°12' E 027°49'714.8
2017-Aug-07 21:30N 60°10' E 028°03'714.6
2017-Aug-07 21:00N 60°07' E 028°17'714.8
2017-Aug-07 20:30N 60°04' E 028°30'917.0
2017-Aug-07 20:00N 60°03' E 028°47'714.0
2017-Aug-07 19:29N 60°02' E 029°01'1412.8
2017-Aug-07 18:24N 60°02' E 029°29'510.1
2017-Aug-07 17:52N 59°60' E 029°39'410.2
2017-Aug-07 17:30N 59°59' E 029°46'510.2
2017-Aug-07 17:00N 59°56' E 029°55'613.0
2017-Aug-07 16:30N 59°54' E 030°07'3 5.8
2017-Aug-07 16:00N 59°54' E 030°13'3 5.2
2017-Aug-07 15:30N 59°56' E 030°16'0 0.3
2017-Aug-07 14:58N 59°56' E 030°17'0 0.0
2017-Aug-07 14:28N 59°56' E 030°17'0 0.0
2017-Aug-07 13:58N 59°56' E 030°17'0 0.0
2017-Aug-07 13:28N 59°56' E 030°17'0 0.0
2017-Aug-07 12:58N 59°56' E 030°17'0 0.0
2017-Aug-07 12:28N 59°56' E 030°17'0 0.0
2017-Aug-07 11:58N 59°56' E 030°17'0 0.0
2017-Aug-07 11:28N 59°56' E 030°17'0 0.0
2017-Aug-07 10:58N 59°56' E 030°17'0 0.0
2017-Aug-07 10:28N 59°56' E 030°17'0 0.0
2017-Aug-07 09:58N 59°56' E 030°17'0 0.0
2017-Aug-07 09:28N 59°56' E 030°17'0 0.0
2017-Aug-07 08:58N 59°56' E 030°17'0 0.0
2017-Aug-07 08:28N 59°56' E 030°17'0 0.0
2017-Aug-07 07:58N 59°56' E 030°17'0 0.0
2017-Aug-07 07:28N 59°56' E 030°17'0 0.0
2017-Aug-07 06:58N 59°56' E 030°17'0 0.0
2017-Aug-07 06:28N 59°56' E 030°17'0 0.0
2017-Aug-07 05:58N 59°56' E 030°17'0 0.0
2017-Aug-07 05:28N 59°56' E 030°17'0 0.0
2017-Aug-07 04:58N 59°56' E 030°17'0 0.0
2017-Aug-07 04:28N 59°56' E 030°17'0 0.0
2017-Aug-07 03:58N 59°56' E 030°17'0 0.0
2017-Aug-07 03:28N 59°56' E 030°17'0 0.0
2017-Aug-07 02:58N 59°56' E 030°17'0 0.0
2017-Aug-07 02:28N 59°56' E 030°17'0 0.0
2017-Aug-07 01:58N 59°56' E 030°17'  

Dump ship's entire track history